sensor_id;sensor_type;location;lat;lon;timestamp;pressure;altitude;pressure_sealevel;temperature;humidity
36192;BME280;22233;42.708;23.360;2023-02-22T00:00:39;95398.69;;;10.52;44.09
36192;BME280;22233;42.708;23.360;2023-02-22T00:03:13;95389.78;;;10.60;44.82
36192;BME280;22233;42.708;23.360;2023-02-22T00:05:41;95377.13;;;10.47;44.16
36192;BME280;22233;42.708;23.360;2023-02-22T00:08:14;95404.13;;;10.52;43.95
36192;BME280;22233;42.708;23.360;2023-02-22T00:10:40;95383.63;;;10.37;44.76
36192;BME280;22233;42.708;23.360;2023-02-22T00:13:07;95394.59;;;10.32;45.06
36192;BME280;22233;42.708;23.360;2023-02-22T00:15:34;95383.38;;;10.25;45.00
36192;BME280;22233;42.708;23.360;2023-02-22T00:18:00;95389.16;;;10.32;45.30
36192;BME280;22233;42.708;23.360;2023-02-22T00:20:25;95394.16;;;10.16;45.55
36192;BME280;22233;42.708;23.360;2023-02-22T00:22:51;95392.59;;;9.92;46.23
36192;BME280;22233;42.708;23.360;2023-02-22T00:25:19;95387.94;;;10.15;46.10
36192;BME280;22233;42.708;23.360;2023-02-22T00:27:45;95397.88;;;9.97;46.25
36192;BME280;22233;42.708;23.360;2023-02-22T00:30:17;95386.78;;;9.85;46.98
36192;BME280;22233;42.708;23.360;2023-02-22T00:32:45;95390.47;;;10.12;45.97
36192;BME280;22233;42.708;23.360;2023-02-22T00:35:11;95390.34;;;10.17;46.41
36192;BME280;22233;42.708;23.360;2023-02-22T00:37:37;95376.97;;;10.20;45.57
36192;BME280;22233;42.708;23.360;2023-02-22T00:40:09;95395.81;;;10.26;45.72
36192;BME280;22233;42.708;23.360;2023-02-22T00:42:35;95383.19;;;10.21;45.94
36192;BME280;22233;42.708;23.360;2023-02-22T00:45:00;95384.88;;;10.08;45.58
36192;BME280;22233;42.708;23.360;2023-02-22T00:47:25;95377.78;;;9.98;46.90
36192;BME280;22233;42.708;23.360;2023-02-22T00:49:51;95389.00;;;10.06;46.45
36192;BME280;22233;42.708;23.360;2023-02-22T00:52:17;95387.25;;;10.10;45.75
36192;BME280;22233;42.708;23.360;2023-02-22T00:54:42;95381.25;;;9.90;46.86
36192;BME280;22233;42.708;23.360;2023-02-22T00:57:08;95356.25;;;9.79;45.95
36192;BME280;22233;42.708;23.360;2023-02-22T00:59:33;95378.47;;;9.82;46.60
36192;BME280;22233;42.708;23.360;2023-02-22T01:01:58;95360.34;;;9.68;46.42
36192;BME280;22233;42.708;23.360;2023-02-22T01:04:24;95380.56;;;9.62;47.49
36192;BME280;22233;42.708;23.360;2023-02-22T01:06:49;95361.94;;;9.47;46.92
36192;BME280;22233;42.708;23.360;2023-02-22T01:09:15;95348.75;;;9.54;46.97
36192;BME280;22233;42.708;23.360;2023-02-22T01:11:40;95370.41;;;9.31;47.61
36192;BME280;22233;42.708;23.360;2023-02-22T01:14:06;95366.72;;;9.27;48.06
36192;BME280;22233;42.708;23.360;2023-02-22T01:16:34;95363.50;;;9.25;47.76
36192;BME280;22233;42.708;23.360;2023-02-22T01:19:00;95351.25;;;9.28;47.40
36192;BME280;22233;42.708;23.360;2023-02-22T01:21:25;95366.59;;;9.32;47.88
36192;BME280;22233;42.708;23.360;2023-02-22T01:23:50;95340.50;;;9.00;47.94
36192;BME280;22233;42.708;23.360;2023-02-22T01:26:16;95360.94;;;9.06;48.05
36192;BME280;22233;42.708;23.360;2023-02-22T01:28:41;95363.16;;;9.04;47.83
36192;BME280;22233;42.708;23.360;2023-02-22T01:31:07;95359.75;;;8.98;48.69
36192;BME280;22233;42.708;23.360;2023-02-22T01:33:33;95340.72;;;8.76;48.48
36192;BME280;22233;42.708;23.360;2023-02-22T01:35:58;95359.38;;;8.77;49.41
36192;BME280;22233;42.708;23.360;2023-02-22T01:38:24;95349.66;;;8.76;48.69
36192;BME280;22233;42.708;23.360;2023-02-22T01:40:50;95346.25;;;8.57;48.95
36192;BME280;22233;42.708;23.360;2023-02-22T01:43:28;95366.03;;;8.71;48.99
36192;BME280;22233;42.708;23.360;2023-02-22T01:45:56;95346.56;;;8.42;49.59
36192;BME280;22233;42.708;23.360;2023-02-22T01:48:36;95341.66;;;8.44;49.37
36192;BME280;22233;42.708;23.360;2023-02-22T01:51:12;95355.72;;;8.27;49.95
36192;BME280;22233;42.708;23.360;2023-02-22T01:56:10;95350.78;;;8.48;49.62
36192;BME280;22233;42.708;23.360;2023-02-22T01:58:37;95343.56;;;8.43;49.86
36192;BME280;22233;42.708;23.360;2023-02-22T02:01:05;95360.91;;;8.56;49.75
36192;BME280;22233;42.708;23.360;2023-02-22T02:03:34;95368.41;;;8.59;49.80
36192;BME280;22233;42.708;23.360;2023-02-22T02:06:04;95354.06;;;8.45;49.78
36192;BME280;22233;42.708;23.360;2023-02-22T02:08:48;95372.44;;;8.48;49.80
36192;BME280;22233;42.708;23.360;2023-02-22T02:11:19;95364.16;;;8.25;50.62
36192;BME280;22233;42.708;23.360;2023-02-22T02:13:47;95359.16;;;8.32;50.04
36192;BME280;22233;42.708;23.360;2023-02-22T02:16:13;95363.84;;;8.27;50.46
36192;BME280;22233;42.708;23.360;2023-02-22T02:18:39;95372.59;;;8.37;50.14
36192;BME280;22233;42.708;23.360;2023-02-22T02:37:35;95369.91;;;8.05;50.85
36192;BME280;22233;42.708;23.360;2023-02-22T02:40:15;95370.25;;;8.03;51.03
36192;BME280;22233;42.708;23.360;2023-02-22T02:43:03;95375.69;;;8.17;50.79
36192;BME280;22233;42.708;23.360;2023-02-22T02:46:00;95383.81;;;8.17;51.25
36192;BME280;22233;42.708;23.360;2023-02-22T02:48:28;95382.56;;;8.09;50.75
36192;BME280;22233;42.708;23.360;2023-02-22T02:50:57;95363.75;;;8.18;50.66
36192;BME280;22233;42.708;23.360;2023-02-22T02:53:27;95366.41;;;8.04;50.90
36192;BME280;22233;42.708;23.360;2023-02-22T02:55:57;95377.25;;;7.71;52.19
36192;BME280;22233;42.708;23.360;2023-02-22T02:58:23;95376.72;;;7.36;52.84
36192;BME280;22233;42.708;23.360;2023-02-22T03:00:52;95366.84;;;6.89;54.15
36192;BME280;22233;42.708;23.360;2023-02-22T03:08:45;95364.91;;;7.65;51.64
36192;BME280;22233;42.708;23.360;2023-02-22T03:11:20;95378.94;;;8.00;50.94
36192;BME280;22233;42.708;23.360;2023-02-22T03:19:18;95384.19;;;8.24;50.95
36192;BME280;22233;42.708;23.360;2023-02-22T03:24:26;95370.09;;;8.27;51.06
36192;BME280;22233;42.708;23.360;2023-02-22T03:27:37;95374.59;;;8.32;50.84
36192;BME280;22233;42.708;23.360;2023-02-22T03:30:21;95380.22;;;8.35;50.58
36192;BME280;22233;42.708;23.360;2023-02-22T03:32:55;95389.13;;;8.36;50.34
36192;BME280;22233;42.708;23.360;2023-02-22T03:35:27;95383.63;;;8.27;50.95
36192;BME280;22233;42.708;23.360;2023-02-22T03:37:57;95371.97;;;8.27;50.69
36192;BME280;22233;42.708;23.360;2023-02-22T03:40:30;95358.03;;;8.19;50.83
36192;BME280;22233;42.708;23.360;2023-02-22T03:43:11;95371.16;;;8.26;50.82
36192;BME280;22233;42.708;23.360;2023-02-22T03:45:41;95383.00;;;8.30;51.19
36192;BME280;22233;42.708;23.360;2023-02-22T03:51:03;95379.50;;;8.30;51.04
36192;BME280;22233;42.708;23.360;2023-02-22T03:53:30;95387.97;;;8.42;50.41
36192;BME280;22233;42.708;23.360;2023-02-22T03:55:57;95390.66;;;8.42;50.55
36192;BME280;22233;42.708;23.360;2023-02-22T03:58:27;95376.59;;;8.40;50.09
36192;BME280;22233;42.708;23.360;2023-02-22T04:00:55;95391.22;;;8.39;49.95
36192;BME280;22233;42.708;23.360;2023-02-22T04:03:21;95372.56;;;8.10;50.49
36192;BME280;22233;42.708;23.360;2023-02-22T04:05:47;95372.34;;;8.06;50.41
36192;BME280;22233;42.708;23.360;2023-02-22T04:08:12;95384.97;;;8.11;50.34
36192;BME280;22233;42.708;23.360;2023-02-22T04:10:38;95379.72;;;8.00;50.40
36192;BME280;22233;42.708;23.360;2023-02-22T04:13:03;95383.41;;;7.77;50.86
36192;BME280;22233;42.708;23.360;2023-02-22T04:15:31;95394.72;;;7.79;51.77
36192;BME280;22233;42.708;23.360;2023-02-22T04:17:57;95382.97;;;7.70;51.30
36192;BME280;22233;42.708;23.360;2023-02-22T04:20:22;95374.50;;;7.57;51.19
36192;BME280;22233;42.708;23.360;2023-02-22T04:22:53;95393.34;;;7.63;51.35
36192;BME280;22233;42.708;23.360;2023-02-22T04:25:20;95388.56;;;7.40;51.90
36192;BME280;22233;42.708;23.360;2023-02-22T04:27:47;95395.13;;;7.53;51.77
36192;BME280;22233;42.708;23.360;2023-02-22T04:30:12;95402.63;;;7.37;52.16
36192;BME280;22233;42.708;23.360;2023-02-22T04:32:38;95393.19;;;7.16;52.47
36192;BME280;22233;42.708;23.360;2023-02-22T04:35:05;95395.91;;;6.97;53.54
36192;BME280;22233;42.708;23.360;2023-02-22T04:37:31;95399.94;;;7.18;52.89
36192;BME280;22233;42.708;23.360;2023-02-22T04:40:03;95389.91;;;7.00;53.16
36192;BME280;22233;42.708;23.360;2023-02-22T04:42:33;95370.84;;;6.48;54.71
36192;BME280;22233;42.708;23.360;2023-02-22T04:44:58;95395.59;;;6.55;54.72
36192;BME280;22233;42.708;23.360;2023-02-22T04:47:23;95398.50;;;6.83;54.26
36192;BME280;22233;42.708;23.360;2023-02-22T04:49:49;95394.13;;;6.87;54.25
36192;BME280;22233;42.708;23.360;2023-02-22T04:52:14;95386.94;;;6.58;54.85
36192;BME280;22233;42.708;23.360;2023-02-22T04:54:40;95384.09;;;6.69;53.85
36192;BME280;22233;42.708;23.360;2023-02-22T04:57:05;95393.06;;;6.64;54.48
36192;BME280;22233;42.708;23.360;2023-02-22T04:59:31;95412.00;;;6.83;54.06
36192;BME280;22233;42.708;23.360;2023-02-22T05:01:57;95383.34;;;6.63;54.34
36192;BME280;22233;42.708;23.360;2023-02-22T05:04:23;95381.00;;;6.56;54.34
36192;BME280;22233;42.708;23.360;2023-02-22T05:06:48;95386.97;;;6.77;53.77
36192;BME280;22233;42.708;23.360;2023-02-22T05:09:14;95383.97;;;6.79;54.10
36192;BME280;22233;42.708;23.360;2023-02-22T05:11:39;95384.78;;;6.79;54.31
36192;BME280;22233;42.708;23.360;2023-02-22T05:14:05;95393.63;;;6.85;54.34
36192;BME280;22233;42.708;23.360;2023-02-22T05:16:30;95407.53;;;6.73;54.34
36192;BME280;22233;42.708;23.360;2023-02-22T05:18:56;95403.88;;;6.64;55.04
36192;BME280;22233;42.708;23.360;2023-02-22T05:21:21;95409.59;;;6.82;53.90
36192;BME280;22233;42.708;23.360;2023-02-22T05:23:47;95405.84;;;6.77;54.11
36192;BME280;22233;42.708;23.360;2023-02-22T05:26:13;95398.00;;;6.81;54.11
36192;BME280;22233;42.708;23.360;2023-02-22T05:28:38;95420.13;;;6.59;55.30
36192;BME280;22233;42.708;23.360;2023-02-22T05:31:04;95417.53;;;6.73;54.56
36192;BME280;22233;42.708;23.360;2023-02-22T05:33:31;95417.97;;;6.56;54.92
36192;BME280;22233;42.708;23.360;2023-02-22T05:35:57;95422.53;;;6.60;54.83
36192;BME280;22233;42.708;23.360;2023-02-22T05:38:22;95439.38;;;6.76;54.22
36192;BME280;22233;42.708;23.360;2023-02-22T05:40:48;95437.38;;;6.82;54.00
36192;BME280;22233;42.708;23.360;2023-02-22T05:43:14;95447.00;;;6.69;54.64
36192;BME280;22233;42.708;23.360;2023-02-22T05:45:40;95438.44;;;6.86;54.11
36192;BME280;22233;42.708;23.360;2023-02-22T05:48:06;95438.13;;;6.88;54.32
36192;BME280;22233;42.708;23.360;2023-02-22T05:50:32;95424.94;;;6.86;54.46
36192;BME280;22233;42.708;23.360;2023-02-22T05:52:58;95438.13;;;6.88;54.35
36192;BME280;22233;42.708;23.360;2023-02-22T05:55:23;95445.66;;;6.91;54.31
36192;BME280;22233;42.708;23.360;2023-02-22T05:57:50;95438.97;;;6.88;54.35
36192;BME280;22233;42.708;23.360;2023-02-22T06:00:23;95449.84;;;7.02;53.67
36192;BME280;22233;42.708;23.360;2023-02-22T06:02:54;95452.09;;;6.71;55.04
36192;BME280;22233;42.708;23.360;2023-02-22T06:05:20;95433.75;;;6.92;53.86
36192;BME280;22233;42.708;23.360;2023-02-22T06:07:45;95442.72;;;7.11;53.99
36192;BME280;22233;42.708;23.360;2023-02-22T06:10:10;95445.88;;;7.18;54.04
36192;BME280;22233;42.708;23.360;2023-02-22T06:12:38;95451.00;;;7.39;53.37
36192;BME280;22233;42.708;23.360;2023-02-22T06:15:03;95432.78;;;7.26;53.71
36192;BME280;22233;42.708;23.360;2023-02-22T06:17:29;95448.63;;;7.32;53.79
36192;BME280;22233;42.708;23.360;2023-02-22T06:19:54;95436.97;;;7.37;53.65
36192;BME280;22233;42.708;23.360;2023-02-22T06:22:20;95455.09;;;7.55;53.29
36192;BME280;22233;42.708;23.360;2023-02-22T06:24:45;95455.31;;;7.59;53.50
36192;BME280;22233;42.708;23.360;2023-02-22T06:27:11;95451.78;;;7.77;53.24
36192;BME280;22233;42.708;23.360;2023-02-22T06:29:36;95428.59;;;7.90;52.72
36192;BME280;22233;42.708;23.360;2023-02-22T06:32:02;95447.47;;;7.95;52.64
36192;BME280;22233;42.708;23.360;2023-02-22T06:34:27;95438.38;;;8.05;52.64
36192;BME280;22233;42.708;23.360;2023-02-22T06:36:52;95457.94;;;8.16;52.69
36192;BME280;22233;42.708;23.360;2023-02-22T06:39:18;95473.25;;;8.39;52.68
36192;BME280;22233;42.708;23.360;2023-02-22T06:41:45;95457.19;;;8.29;53.34
36192;BME280;22233;42.708;23.360;2023-02-22T06:44:12;95464.03;;;8.08;52.94
36192;BME280;22233;42.708;23.360;2023-02-22T06:46:38;95454.13;;;7.84;53.66
36192;BME280;22233;42.708;23.360;2023-02-22T06:49:04;95455.91;;;8.08;54.10
36192;BME280;22233;42.708;23.360;2023-02-22T06:51:30;95466.41;;;7.76;54.20
36192;BME280;22233;42.708;23.360;2023-02-22T06:53:59;95465.13;;;8.07;53.63
36192;BME280;22233;42.708;23.360;2023-02-22T06:56:25;95451.91;;;8.05;53.47
36192;BME280;22233;42.708;23.360;2023-02-22T06:58:50;95446.34;;;7.96;53.71
36192;BME280;22233;42.708;23.360;2023-02-22T07:01:16;95452.72;;;7.87;54.20
36192;BME280;22233;42.708;23.360;2023-02-22T07:03:41;95448.03;;;7.92;54.28
36192;BME280;22233;42.708;23.360;2023-02-22T07:06:07;95464.47;;;8.15;53.92
36192;BME280;22233;42.708;23.360;2023-02-22T07:08:32;95456.19;;;8.06;53.76
36192;BME280;22233;42.708;23.360;2023-02-22T07:10:58;95463.06;;;8.17;53.17
36192;BME280;22233;42.708;23.360;2023-02-22T07:13:23;95459.91;;;8.29;53.27
36192;BME280;22233;42.708;23.360;2023-02-22T07:15:49;95451.94;;;8.19;52.56
36192;BME280;22233;42.708;23.360;2023-02-22T07:18:14;95463.28;;;8.35;52.99
36192;BME280;22233;42.708;23.360;2023-02-22T07:20:40;95464.69;;;8.51;52.28
36192;BME280;22233;42.708;23.360;2023-02-22T07:23:06;95452.53;;;8.49;52.42
36192;BME280;22233;42.708;23.360;2023-02-22T07:25:31;95457.06;;;8.53;52.33
36192;BME280;22233;42.708;23.360;2023-02-22T07:27:57;95445.16;;;8.35;52.41
36192;BME280;22233;42.708;23.360;2023-02-22T07:30:26;95446.25;;;8.53;52.20
36192;BME280;22233;42.708;23.360;2023-02-22T07:32:55;95444.22;;;8.59;52.09
36192;BME280;22233;42.708;23.360;2023-02-22T07:35:26;95428.59;;;8.56;51.83
36192;BME280;22233;42.708;23.360;2023-02-22T07:37:52;95430.19;;;8.71;51.63
36192;BME280;22233;42.708;23.360;2023-02-22T07:40:19;95446.84;;;8.78;51.82
36192;BME280;22233;42.708;23.360;2023-02-22T07:42:58;95457.88;;;9.09;50.70
36192;BME280;22233;42.708;23.360;2023-02-22T07:45:29;95445.41;;;9.36;50.78
36192;BME280;22233;42.708;23.360;2023-02-22T07:47:55;95434.94;;;9.43;50.21
36192;BME280;22233;42.708;23.360;2023-02-22T07:50:22;95438.59;;;9.38;49.55
36192;BME280;22233;42.708;23.360;2023-02-22T07:52:50;95452.69;;;9.86;48.55
36192;BME280;22233;42.708;23.360;2023-02-22T07:55:19;95440.84;;;9.82;48.94
36192;BME280;22233;42.708;23.360;2023-02-22T07:57:45;95453.16;;;10.02;48.82
36192;BME280;22233;42.708;23.360;2023-02-22T08:00:12;95439.13;;;9.63;50.06
36192;BME280;22233;42.708;23.360;2023-02-22T08:02:40;95434.28;;;9.74;48.95
36192;BME280;22233;42.708;23.360;2023-02-22T08:05:06;95442.03;;;10.12;48.02
36192;BME280;22233;42.708;23.360;2023-02-22T08:07:32;95434.53;;;10.09;48.17
36192;BME280;22233;42.708;23.360;2023-02-22T08:09:58;95437.06;;;10.50;47.15
36192;BME280;22233;42.708;23.360;2023-02-22T08:12:23;95433.78;;;10.39;47.40
36192;BME280;22233;42.708;23.360;2023-02-22T08:14:48;95428.31;;;10.62;46.23
36192;BME280;22233;42.708;23.360;2023-02-22T08:17:14;95436.19;;;10.72;46.83
36192;BME280;22233;42.708;23.360;2023-02-22T08:19:39;95431.19;;;10.97;45.53
36192;BME280;22233;42.708;23.360;2023-02-22T08:22:05;95428.16;;;11.07;47.39
36192;BME280;22233;42.708;23.360;2023-02-22T08:24:30;95435.91;;;11.31;45.70
36192;BME280;22233;42.708;23.360;2023-02-22T08:26:56;95426.81;;;11.53;44.66
36192;BME280;22233;42.708;23.360;2023-02-22T08:29:22;95422.53;;;11.87;44.32
36192;BME280;22233;42.708;23.360;2023-02-22T08:31:51;95424.63;;;12.08;43.89
36192;BME280;22233;42.708;23.360;2023-02-22T08:34:19;95423.50;;;12.00;43.81
36192;BME280;22233;42.708;23.360;2023-02-22T08:36:45;95417.53;;;12.42;42.96
36192;BME280;22233;42.708;23.360;2023-02-22T08:39:10;95412.94;;;12.72;43.02
36192;BME280;22233;42.708;23.360;2023-02-22T08:41:35;95413.03;;;12.84;43.55
36192;BME280;22233;42.708;23.360;2023-02-22T08:44:01;95411.69;;;12.99;41.87
36192;BME280;22233;42.708;23.360;2023-02-22T08:46:27;95394.78;;;13.14;41.36
36192;BME280;22233;42.708;23.360;2023-02-22T08:48:53;95405.13;;;13.30;41.65
36192;BME280;22233;42.708;23.360;2023-02-22T08:51:19;95408.50;;;13.56;41.50
36192;BME280;22233;42.708;23.360;2023-02-22T08:53:44;95405.84;;;13.69;40.92
36192;BME280;22233;42.708;23.360;2023-02-22T08:56:10;95404.69;;;13.70;40.56
36192;BME280;22233;42.708;23.360;2023-02-22T08:58:36;95402.72;;;13.79;41.35
36192;BME280;22233;42.708;23.360;2023-02-22T09:01:01;95401.84;;;13.66;41.35
36192;BME280;22233;42.708;23.360;2023-02-22T09:03:27;95395.06;;;13.72;40.67
36192;BME280;22233;42.708;23.360;2023-02-22T09:05:52;95411.47;;;14.06;40.96
36192;BME280;22233;42.708;23.360;2023-02-22T09:08:18;95401.94;;;14.45;40.81
36192;BME280;22233;42.708;23.360;2023-02-22T09:10:44;95403.84;;;14.78;39.97
36192;BME280;22233;42.708;23.360;2023-02-22T09:13:10;95383.13;;;15.02;39.45
36192;BME280;22233;42.708;23.360;2023-02-22T09:15:36;95385.72;;;15.23;38.88
36192;BME280;22233;42.708;23.360;2023-02-22T09:18:03;95393.72;;;15.28;39.11
36192;BME280;22233;42.708;23.360;2023-02-22T09:20:28;95382.09;;;15.18;38.64
36192;BME280;22233;42.708;23.360;2023-02-22T09:22:54;95400.91;;;15.32;39.00
36192;BME280;22233;42.708;23.360;2023-02-22T09:25:21;95390.09;;;15.24;38.85
36192;BME280;22233;42.708;23.360;2023-02-22T09:27:48;95380.22;;;15.47;38.47
36192;BME280;22233;42.708;23.360;2023-02-22T09:30:19;95379.06;;;15.73;38.21
36192;BME280;22233;42.708;23.360;2023-02-22T09:32:45;95382.91;;;15.84;37.81
36192;BME280;22233;42.708;23.360;2023-02-22T09:35:10;95379.75;;;15.70;38.55
36192;BME280;22233;42.708;23.360;2023-02-22T09:37:37;95348.72;;;15.78;38.63
36192;BME280;22233;42.708;23.360;2023-02-22T09:40:02;95363.06;;;15.10;39.56
36192;BME280;22233;42.708;23.360;2023-02-22T09:42:39;95370.44;;;15.46;39.04
36192;BME280;22233;42.708;23.360;2023-02-22T09:45:13;95368.88;;;15.21;39.55
36192;BME280;22233;42.708;23.360;2023-02-22T09:48:00;95365.06;;;15.50;39.17
36192;BME280;22233;42.708;23.360;2023-02-22T09:50:28;95362.63;;;15.61;38.51
36192;BME280;22233;42.708;23.360;2023-02-22T09:53:22;95362.31;;;16.03;38.38
36192;BME280;22233;42.708;23.360;2023-02-22T09:55:59;95361.91;;;16.16;37.58
36192;BME280;22233;42.708;23.360;2023-02-22T09:58:40;95356.91;;;16.34;37.17
36192;BME280;22233;42.708;23.360;2023-02-22T10:04:16;95357.97;;;16.62;35.87
36192;BME280;22233;42.708;23.360;2023-02-22T10:06:49;95352.94;;;16.48;35.87
36192;BME280;22233;42.708;23.360;2023-02-22T10:09:16;95340.69;;;16.89;34.70
36192;BME280;22233;42.708;23.360;2023-02-22T10:11:54;95332.66;;;17.16;33.84
36192;BME280;22233;42.708;23.360;2023-02-22T10:24:59;95318.06;;;17.47;32.71
36192;BME280;22233;42.708;23.360;2023-02-22T10:27:36;95314.41;;;17.59;33.37
36192;BME280;22233;42.708;23.360;2023-02-22T10:32:44;95300.31;;;17.80;33.10
36192;BME280;22233;42.708;23.360;2023-02-22T10:35:37;95297.66;;;18.03;33.57
36192;BME280;22233;42.708;23.360;2023-02-22T10:38:26;95291.50;;;18.33;33.69
36192;BME280;22233;42.708;23.360;2023-02-22T10:40:59;95283.81;;;18.42;33.71
36192;BME280;22233;42.708;23.360;2023-02-22T10:43:26;95269.44;;;17.48;34.94
36192;BME280;22233;42.708;23.360;2023-02-22T10:45:54;95281.34;;;17.36;34.69
36192;BME280;22233;42.708;23.360;2023-02-22T10:48:22;95277.72;;;17.87;34.24
36192;BME280;22233;42.708;23.360;2023-02-22T10:50:51;95264.06;;;17.74;34.27
36192;BME280;22233;42.708;23.360;2023-02-22T10:53:18;95245.50;;;17.68;34.03
36192;BME280;22233;42.708;23.360;2023-02-22T10:56:22;95270.00;;;18.15;34.12
36192;BME280;22233;42.708;23.360;2023-02-22T11:01:37;95265.47;;;17.84;34.00
36192;BME280;22233;42.708;23.360;2023-02-22T11:04:11;95244.56;;;17.99;34.17
36192;BME280;22233;42.708;23.360;2023-02-22T11:06:40;95254.03;;;18.02;33.35
36192;BME280;22233;42.708;23.360;2023-02-22T11:11:35;95249.19;;;18.38;33.06
36192;BME280;22233;42.708;23.360;2023-02-22T11:14:01;95248.03;;;17.96;33.68
36192;BME280;22233;42.708;23.360;2023-02-22T11:16:42;95237.06;;;18.42;33.80
36192;BME280;22233;42.708;23.360;2023-02-22T11:21:46;95231.88;;;19.13;32.80
36192;BME280;22233;42.708;23.360;2023-02-22T11:24:13;95213.03;;;18.89;32.46
36192;BME280;22233;42.708;23.360;2023-02-22T11:26:46;95231.97;;;18.67;32.74
36192;BME280;22233;42.708;23.360;2023-02-22T11:29:28;95224.84;;;19.16;31.72
36192;BME280;22233;42.708;23.360;2023-02-22T11:32:14;95220.78;;;19.06;31.70
36192;BME280;22233;42.708;23.360;2023-02-22T11:34:45;95226.16;;;19.26;30.55
36192;BME280;22233;42.708;23.360;2023-02-22T11:37:34;95220.72;;;19.03;30.83
36192;BME280;22233;42.708;23.360;2023-02-22T11:40:14;95215.81;;;18.89;30.80
36192;BME280;22233;42.708;23.360;2023-02-22T11:43:05;95193.63;;;19.05;29.80
36192;BME280;22233;42.708;23.360;2023-02-22T11:45:32;95194.44;;;19.09;30.14
36192;BME280;22233;42.708;23.360;2023-02-22T11:48:00;95201.03;;;18.74;30.41
36192;BME280;22233;42.708;23.360;2023-02-22T11:56:20;95190.16;;;19.11;31.64
36192;BME280;22233;42.708;23.360;2023-02-22T12:09:38;95178.22;;;20.50;30.36
36192;BME280;22233;42.708;23.360;2023-02-22T12:12:08;95170.19;;;20.27;29.81
36192;BME280;22233;42.708;23.360;2023-02-22T12:20:19;95170.91;;;20.24;30.54
36192;BME280;22233;42.708;23.360;2023-02-22T12:25:35;95162.00;;;20.41;29.81
36192;BME280;22233;42.708;23.360;2023-02-22T12:30:38;95145.19;;;20.57;29.50
36192;BME280;22233;42.708;23.360;2023-02-22T12:33:11;95154.78;;;20.78;29.04
36192;BME280;22233;42.708;23.360;2023-02-22T12:35:42;95151.34;;;20.99;28.74
36192;BME280;22233;42.708;23.360;2023-02-22T12:38:43;95150.09;;;20.82;28.56
36192;BME280;22233;42.708;23.360;2023-02-22T12:43:46;95147.72;;;20.84;28.69
36192;BME280;22233;42.708;23.360;2023-02-22T12:46:29;95140.28;;;20.91;28.30
36192;BME280;22233;42.708;23.360;2023-02-22T12:49:04;95139.66;;;20.57;28.50
36192;BME280;22233;42.708;23.360;2023-02-22T13:00:09;95130.63;;;20.60;28.54
36192;BME280;22233;42.708;23.360;2023-02-22T13:02:46;95136.41;;;21.03;27.71
36192;BME280;22233;42.708;23.360;2023-02-22T13:05:16;95120.59;;;20.93;27.67
36192;BME280;22233;42.708;23.360;2023-02-22T13:13:33;95134.22;;;21.48;26.96
36192;BME280;22233;42.708;23.360;2023-02-22T13:16:36;95123.66;;;21.76;26.67
36192;BME280;22233;42.708;23.360;2023-02-22T13:27:15;95140.50;;;21.42;27.33
36192;BME280;22233;42.708;23.360;2023-02-22T13:29:46;95127.88;;;21.37;27.20
36192;BME280;22233;42.708;23.360;2023-02-22T13:32:39;95115.47;;;20.95;27.23
36192;BME280;22233;42.708;23.360;2023-02-22T13:35:26;95123.28;;;20.86;27.26
36192;BME280;22233;42.708;23.360;2023-02-22T13:52:05;95102.69;;;21.60;27.03
36192;BME280;22233;42.708;23.360;2023-02-22T13:54:37;95117.78;;;22.27;26.64
36192;BME280;22233;42.708;23.360;2023-02-22T13:57:18;95090.88;;;21.74;26.50
36192;BME280;22233;42.708;23.360;2023-02-22T13:59:44;95129.22;;;21.93;26.20
36192;BME280;22233;42.708;23.360;2023-02-22T14:02:55;95128.59;;;21.27;26.62
36192;BME280;22233;42.708;23.360;2023-02-22T14:10:49;95123.22;;;21.63;26.19
36192;BME280;22233;42.708;23.360;2023-02-22T14:13:17;95118.91;;;21.76;25.86
36192;BME280;22233;42.708;23.360;2023-02-22T14:26:33;95110.63;;;22.19;25.53
36192;BME280;22233;42.708;23.360;2023-02-22T14:29:02;95122.09;;;21.92;25.57
36192;BME280;22233;42.708;23.360;2023-02-22T14:34:21;95119.31;;;21.96;26.02
36192;BME280;22233;42.708;23.360;2023-02-22T14:37:11;95110.53;;;21.51;26.17
36192;BME280;22233;42.708;23.360;2023-02-22T14:39:50;95117.22;;;21.43;26.19
36192;BME280;22233;42.708;23.360;2023-02-22T14:47:31;95116.19;;;21.98;25.60
36192;BME280;22233;42.708;23.360;2023-02-22T14:50:07;95112.97;;;21.74;25.76
36192;BME280;22233;42.708;23.360;2023-02-22T14:52:38;95112.16;;;21.56;25.62
36192;BME280;22233;42.708;23.360;2023-02-22T14:55:12;95111.19;;;21.05;26.58
36192;BME280;22233;42.708;23.360;2023-02-22T14:57:44;95113.72;;;21.53;26.53
36192;BME280;22233;42.708;23.360;2023-02-22T15:03:31;95111.25;;;21.30;27.13
36192;BME280;22233;42.708;23.360;2023-02-22T15:06:18;95104.84;;;21.01;27.43
36192;BME280;22233;42.708;23.360;2023-02-22T15:08:45;95108.84;;;21.25;27.85
36192;BME280;22233;42.708;23.360;2023-02-22T15:11:28;95104.53;;;21.27;28.09
36192;BME280;22233;42.708;23.360;2023-02-22T15:13:55;95103.44;;;21.50;28.11
36192;BME280;22233;42.708;23.360;2023-02-22T15:16:24;95094.94;;;20.96;28.50
36192;BME280;22233;42.708;23.360;2023-02-22T15:18:56;95105.66;;;21.05;28.66
36192;BME280;22233;42.708;23.360;2023-02-22T15:21:24;95109.22;;;20.46;29.43
36192;BME280;22233;42.708;23.360;2023-02-22T15:23:54;95108.91;;;20.55;29.46
36192;BME280;22233;42.708;23.360;2023-02-22T15:26:38;95111.03;;;20.21;29.92
36192;BME280;22233;42.708;23.360;2023-02-22T15:31:44;95089.06;;;19.08;31.83
36192;BME280;22233;42.708;23.360;2023-02-22T15:36:44;95094.22;;;18.80;32.84
36192;BME280;22233;42.708;23.360;2023-02-22T15:39:28;95114.31;;;18.57;33.87
36192;BME280;22233;42.708;23.360;2023-02-22T15:42:16;95103.00;;;18.35;33.91
36192;BME280;22233;42.708;23.360;2023-02-22T15:44:50;95100.13;;;18.55;34.09
36192;BME280;22233;42.708;23.360;2023-02-22T15:47:27;95097.06;;;18.07;34.38